Time;durP1;ratioP1;P1;durP2;ratioP2;P2;SDS_P1;SDS_P2;PMS_P1;PMS_P2;Temp;Humidity;BMP_temperature;BMP_pressure;BME280_temperature;BME280_humidity;BME280_pressure;Samples;Min_cycle;Max_cycle;Signal;HPM_P1;HPM_P2
2022/06/14 00:01:38;;;;;;;3.67;2.67;;;;;;;14.32;86.99;100004.13;4463424;32;34178;-81
2022/06/14 00:04:25;;;;;;;4.47;2.47;;;;;;;14.33;87.00;100003.00;4464714;32;35611;-81
2022/06/14 00:07:11;;;;;;;10.00;3.10;;;;;;;13.99;89.54;100008.53;4465136;32;35938;-81
2022/06/14 00:09:58;;;;;;;4.70;2.85;;;;;;;13.99;90.30;100009.34;4464809;32;34955;-80
2022/06/14 00:12:44;;;;;;;8.48;3.17;;;;;;;14.09;90.09;100008.22;4465011;32;34082;-80
2022/06/14 00:15:31;;;;;;;6.70;3.15;;;;;;;13.89;91.75;100012.44;4464258;32;35304;-81
2022/06/14 00:18:18;;;;;;;4.95;3.15;;;;;;;13.99;91.59;100011.28;4452108;32;35622;-80
2022/06/14 00:21:05;;;;;;;7.90;3.50;;;;;;;13.73;94.64;100012.91;4452324;32;34321;-80
2022/06/14 00:23:51;;;;;;;7.43;3.47;;;;;;;13.52;95.65;100008.34;4453028;32;33683;-79
2022/06/14 00:26:38;;;;;;;5.55;3.10;;;;;;;13.34;97.41;100013.00;4464971;32;34714;-81
2022/06/14 00:29:26;;;;;;;6.65;3.30;;;;;;;13.35;98.71;100007.19;4464964;32;34601;-81
2022/06/14 00:32:14;;;;;;;7.32;3.97;;;;;;;13.51;97.84;100018.53;4463959;32;34478;-80
2022/06/14 00:35:00;;;;;;;9.30;4.05;;;;;;;13.15;100.00;100029.75;4465027;32;33653;-81
2022/06/14 00:37:49;;;;;;;6.70;4.07;;;;;;;13.67;98.21;100035.44;4463885;32;34731;-81
2022/06/14 00:40:37;;;;;;;8.25;4.00;;;;;;;13.42;99.66;100043.31;4465382;32;34508;-81
2022/06/14 00:43:26;;;;;;;6.35;4.15;;;;;;;13.46;99.77;100049.81;4465625;32;34548;-80
2022/06/14 00:46:19;;;;;;;8.00;4.10;;;;;;;13.16;100.00;100051.44;4465643;32;33803;-80
2022/06/14 00:49:14;;;;;;;7.93;4.10;;;;;;;13.58;98.77;100059.38;4442630;32;34666;-80
2022/06/14 00:52:07;;;;;;;7.28;4.30;;;;;;;13.79;98.68;100062.31;4452444;32;34457;-81
2022/06/14 00:54:59;;;;;;;9.20;4.50;;;;;;;13.88;98.15;100066.69;4443217;32;33405;-80
2022/06/14 00:57:52;;;;;;;9.60;4.80;;;;;;;13.76;97.48;100074.00;4465472;32;34710;-80
2022/06/14 01:00:59;;;;;;;;;;;;;;;13.43;99.49;100072.47;4453216;32;34691;-80
2022/06/14 01:03:53;;;;;;;7.55;4.05;;;;;;;13.52;99.91;100071.66;4465428;32;36247;-80
2022/06/14 01:06:49;;;;;;;8.30;4.40;;;;;;;13.85;96.82;100083.88;4464589;32;34642;-80
2022/06/14 01:09:40;;;;;;;9.35;4.50;;;;;;;13.40;98.67;100088.78;4453424;32;34644;-80
2022/06/14 01:12:30;;;;;;;6.85;4.60;;;;;;;13.41;99.39;100079.41;4465445;32;34570;-78
2022/06/14 01:15:28;;;;;;;8.55;4.22;;;;;;;13.03;100.00;100066.94;4451752;32;35938;-78
2022/06/14 01:18:16;;;;;;;8.15;4.75;;;;;;;13.07;100.00;100085.56;4453026;32;35010;-80
2022/06/14 01:21:04;;;;;;;7.35;4.12;;;;;;;13.36;98.77;100079.56;4464184;32;34708;-80
2022/06/14 01:23:51;;;;;;;9.38;4.85;;;;;;;13.52;98.07;100091.75;4465165;32;34263;-80
2022/06/14 01:26:37;;;;;;;6.87;4.60;;;;;;;13.51;97.63;100095.63;4465096;32;36414;-79
2022/06/14 01:29:24;;;;;;;9.25;4.68;;;;;;;13.47;98.08;100094.66;4452579;32;35444;-79
2022/06/14 01:32:13;;;;;;;8.18;4.47;;;;;;;13.86;96.41;100096.53;4452494;32;32914;-80
2022/06/14 01:35:05;;;;;;;10.38;4.30;;;;;;;13.68;96.11;100095.66;4437870;32;34658;-80
2022/06/14 01:37:54;;;;;;;8.40;3.90;;;;;;;13.35;97.73;100098.03;4431859;32;34547;-79
2022/06/14 01:40:55;;;;;;;6.05;4.18;;;;;;;13.31;97.86;100096.22;4424522;32;34048;-79
2022/06/14 01:44:15;;;;;;;9.23;4.32;;;;;;;13.36;97.42;100102.38;4433119;32;33638;-80
2022/06/14 01:47:20;;;;;;;8.93;4.00;;;;;;;13.17;99.37;100108.09;4443498;32;35638;-80
2022/06/14 01:54:11;;;;;;;7.50;4.87;;;;;;;13.01;100.00;100126.97;4433815;32;34606;-79
2022/06/14 01:57:03;;;;;;;9.98;4.45;;;;;;;12.47;100.00;100128.87;4448665;32;34186;-80
2022/06/14 02:00:09;;;;;;;8.13;4.53;;;;;;;12.81;100.00;100120.06;4447034;32;34745;-79
2022/06/14 02:06:33;;;;;;;7.70;4.68;;;;;;;12.59;100.00;100115.37;4426503;32;34776;-79
2022/06/14 02:09:24;;;;;;;7.55;4.25;;;;;;;12.54;100.00;100129.22;4447458;32;33776;-79
2022/06/14 02:12:14;;;;;;;8.50;4.70;;;;;;;12.48;100.00;100129.69;4421782;32;35197;-78
2022/06/14 02:15:05;;;;;;;9.00;4.90;;;;;;;12.17;100.00;100124.87;4423175;32;34522;-79
2022/06/14 02:17:57;;;;;;;;;;;;;;;12.28;100.00;100120.78;4449361;32;34664;-80
2022/06/14 02:20:50;;;;;;;9.13;5.37;;;;;;;12.06;100.00;100118.00;4433199;32;34937;-80
2022/06/14 02:23:47;;;;;;;6.78;4.37;;;;;;;12.52;100.00;100125.16;4421977;32;35519;-80
2022/06/14 02:26:37;;;;;;;7.37;4.40;;;;;;;12.97;100.00;100125.94;4421416;32;34981;-80
2022/06/14 02:29:29;;;;;;;7.93;4.22;;;;;;;12.24;100.00;100121.72;4432138;32;34703;-80
2022/06/14 02:32:19;;;;;;;10.77;4.80;;;;;;;12.67;100.00;100121.25;4419197;32;33608;-80
2022/06/14 02:35:20;;;;;;;8.38;4.30;;;;;;;12.32;100.00;100129.22;4448541;32;34302;-80
2022/06/14 02:38:18;;;;;;;8.18;4.32;;;;;;;12.86;100.00;100118.28;4435462;32;34996;-81
2022/06/14 02:41:17;;;;;;;8.60;4.57;;;;;;;12.53;100.00;100127.63;4452377;32;34583;-81
2022/06/14 02:44:26;;;;;;;8.85;5.03;;;;;;;12.32;100.00;100126.47;4463844;32;35109;-80
2022/06/14 02:47:44;;;;;;;10.85;5.18;;;;;;;12.12;100.00;100134.06;4452246;32;35491;-80
2022/06/14 02:50:37;;;;;;;8.43;5.05;;;;;;;12.28;100.00;100129.03;4449692;32;34473;-79
2022/06/14 02:53:34;;;;;;;9.48;4.65;;;;;;;12.15;100.00;100130.72;4452281;32;34606;-80
2022/06/14 02:56:34;;;;;;;8.02;5.22;;;;;;;12.32;100.00;100142.94;4452608;32;33646;-80
2022/06/14 02:59:32;;;;;;;8.88;4.60;;;;;;;12.30;100.00;100150.72;4440493;32;35390;-79
2022/06/14 03:02:35;;;;;;;7.85;4.60;;;;;;;12.38;100.00;100148.03;4452487;32;34552;-79
2022/06/14 03:05:37;;;;;;;7.28;4.10;;;;;;;12.33;100.00;100150.91;4450484;32;34205;-79
2022/06/14 03:08:36;;;;;;;9.48;5.20;;;;;;;12.13;100.00;100146.69;4452408;32;34150;-80
2022/06/14 03:11:58;;;;;;;8.38;4.95;;;;;;;12.24;100.00;100146.44;4453198;32;34207;-79
2022/06/14 03:14:56;;;;;;;8.23;4.47;;;;;;;12.28;100.00;100144.72;4436580;32;35930;-80
2022/06/14 03:18:20;;;;;;;8.68;4.40;;;;;;;12.11;100.00;100151.66;4465391;32;34508;-80
2022/06/14 03:21:18;;;;;;;10.07;4.40;;;;;;;12.21;100.00;100153.38;4466196;32;34233;-80
2022/06/14 03:24:25;;;;;;;10.50;4.60;;;;;;;12.37;100.00;100151.09;4443591;32;35587;-81
2022/06/14 03:27:23;;;;;;;9.40;4.60;;;;;;;12.63;100.00;100147.72;4453359;32;34728;-79
2022/06/14 03:30:25;;;;;;;9.38;4.75;;;;;;;12.48;100.00;100146.97;4452834;32;34519;-81
2022/06/14 03:33:31;;;;;;;13.07;5.47;;;;;;;12.16;100.00;100150.75;4465055;32;34746;-80
2022/06/14 03:36:18;;;;;;;8.98;4.90;;;;;;;12.28;100.00;100152.94;4465870;32;34340;-80
2022/06/14 03:39:17;;;;;;;8.25;4.70;;;;;;;12.24;100.00;100155.50;4453982;32;35572;-81
2022/06/14 03:42:05;;;;;;;7.43;4.65;;;;;;;12.42;100.00;100161.97;4466043;32;34547;-81
2022/06/14 03:44:58;;;;;;;7.55;4.50;;;;;;;12.63;100.00;100158.72;4452951;32;34748;-81
2022/06/14 03:47:48;;;;;;;8.82;4.85;;;;;;;12.82;100.00;100162.09;4465411;32;35655;-79
2022/06/14 03:50:48;;;;;;;9.43;4.78;;;;;;;12.77;100.00;100171.28;4465874;32;35703;-81
2022/06/14 03:54:14;;;;;;;12.70;4.47;;;;;;;12.69;100.00;100176.72;4466102;32;34445;-80
2022/06/14 03:57:40;;;;;;;7.05;4.28;;;;;;;12.59;100.00;100175.03;4465184;32;34055;-80
2022/06/14 04:00:47;;;;;;;9.20;5.10;;;;;;;12.50;100.00;100174.97;4452988;32;34633;-80
2022/06/14 04:03:59;;;;;;;8.25;4.25;;;;;;;12.48;100.00;100185.44;4464813;32;35053;-80
2022/06/14 04:06:51;;;;;;;10.05;4.68;;;;;;;12.55;100.00;100185.84;4460569;32;34221;-79
2022/06/14 04:09:56;;;;;;;8.23;4.30;;;;;;;12.55;100.00;100190.50;4463644;32;33914;-80
2022/06/14 04:13:04;;;;;;;10.10;4.97;;;;;;;12.68;100.00;100188.84;4465529;32;34905;-79
2022/06/14 04:16:17;;;;;;;8.45;4.47;;;;;;;12.47;100.00;100189.34;4465107;32;34559;-79
2022/06/14 04:19:16;;;;;;;9.15;4.65;;;;;;;12.45;100.00;100197.06;4452488;32;33193;-82
2022/06/14 04:22:12;;;;;;;10.73;5.25;;;;;;;13.08;100.00;100198.03;4438271;32;33729;-79
2022/06/14 04:25:12;;;;;;;9.20;4.45;;;;;;;12.84;100.00;100192.87;4453238;32;34390;-81
2022/06/14 04:28:16;;;;;;;6.43;4.12;;;;;;;13.13;100.00;100197.91;4451289;32;34502;-82
2022/06/14 04:31:18;;;;;;;8.18;4.78;;;;;;;13.34;100.00;100198.22;4464783;32;35497;-80
2022/06/14 04:34:28;;;;;;;9.45;3.80;;;;;;;13.42;100.00;100208.44;4449274;32;33893;-81
2022/06/14 04:37:42;;;;;;;8.40;4.00;;;;;;;13.85;99.24;100216.09;4462664;32;34474;-83
2022/06/14 04:40:36;;;;;;;6.12;3.35;;;;;;;13.70;98.97;100217.34;4463839;32;35915;-82
2022/06/14 04:43:35;;;;;;;8.27;3.75;;;;;;;14.23;94.82;100214.72;4451976;32;34741;-82
2022/06/14 04:46:35;;;;;;;6.57;3.17;;;;;;;14.34;94.01;100227.06;4453237;32;33994;-81
2022/06/14 04:49:29;;;;;;;6.95;3.75;;;;;;;13.95;95.92;100232.34;4463849;32;34288;-80
2022/06/14 04:52:47;;;;;;;7.32;3.62;;;;;;;14.00;95.46;100236.06;4453124;32;35000;-78
2022/06/14 04:55:40;;;;;;;6.62;3.70;;;;;;;14.00;95.03;100233.31;4450554;32;34540;-81
2022/06/14 04:58:39;;;;;;;7.68;3.60;;;;;;;13.97;96.43;100233.94;4451429;32;34704;-81
2022/06/14 05:01:30;;;;;;;8.90;3.67;;;;;;;14.07;97.04;100234.47;4453375;32;36927;-82
2022/06/14 05:04:39;;;;;;;8.98;3.72;;;;;;;14.34;95.24;100233.41;4451071;32;36454;-81
2022/06/14 05:07:38;;;;;;;7.28;3.92;;;;;;;14.36;94.58;100247.66;4462759;32;34065;-81
2022/06/14 05:10:31;;;;;;;8.90;3.70;;;;;;;14.65;93.37;100239.97;4450654;32;35097;-80
2022/06/14 05:13:33;;;;;;;9.18;3.67;;;;;;;14.77;91.13;100249.22;4460201;32;34761;-81
2022/06/14 05:16:26;;;;;;;5.43;3.33;;;;;;;14.49;92.85;100250.63;4450324;32;35932;-81
2022/06/14 05:19:22;;;;;;;7.57;3.53;;;;;;;14.70;91.49;100257.16;4452318;32;34476;-81
2022/06/14 05:22:36;;;;;;;6.93;3.55;;;;;;;14.86;89.81;100265.78;4466595;32;34041;-80
2022/06/14 05:25:28;;;;;;;8.02;4.05;;;;;;;14.60;92.48;100263.81;4454404;32;34647;-79
2022/06/14 05:28:23;;;;;;;8.27;3.53;;;;;;;14.37;94.34;100265.84;4454896;32;35880;-82
2022/06/14 05:31:35;;;;;;;9.55;4.00;;;;;;;14.76;93.09;100260.56;4451175;32;34591;-81
2022/06/14 05:34:33;;;;;;;9.20;3.67;;;;;;;15.12;91.07;100265.75;4439743;32;35080;-79
2022/06/14 05:37:40;;;;;;;7.55;3.87;;;;;;;14.84;93.04;100257.81;4465489;32;35221;-81
2022/06/14 05:40:40;;;;;;;8.68;3.42;;;;;;;15.33;89.99;100262.31;4455310;32;36349;-81
2022/06/14 05:44:03;;;;;;;11.32;4.80;;;;;;;15.28;88.08;100261.37;4454158;32;35095;-81
2022/06/14 05:46:55;;;;;;;7.72;3.72;;;;;;;15.17;88.30;100257.31;4460714;32;33568;-80
2022/06/14 05:49:50;;;;;;;7.35;3.10;;;;;;;15.74;86.13;100253.47;4453173;32;35168;-82
2022/06/14 05:52:49;;;;;;;6.12;3.08;;;;;;;15.86;86.54;100250.03;4444259;32;35663;-84
2022/06/14 05:55:49;;;;;;;6.50;2.97;;;;;;;16.30;84.06;100253.38;4455032;32;35301;-76
2022/06/14 05:58:46;;;;;;;7.97;3.28;;;;;;;15.61;85.14;100269.06;4465683;32;35137;-76
2022/06/14 06:01:43;;;;;;;6.72;2.97;;;;;;;16.07;82.42;100261.94;4454146;32;34592;-82
2022/06/14 06:05:01;;;;;;;6.80;3.17;;;;;;;15.94;83.31;100263.00;4465330;32;35917;-81
2022/06/14 06:07:59;;;;;;;7.10;3.42;;;;;;;15.99;83.70;100268.31;4466334;32;34553;-81
2022/06/14 06:10:52;;;;;;;7.25;4.05;;;;;;;16.28;83.83;100280.53;4453039;32;34155;-80
2022/06/14 06:14:09;;;;;;;5.95;2.90;;;;;;;16.03;83.55;100279.53;4461113;32;34696;-80
2022/06/14 06:17:05;;;;;;;9.02;3.55;;;;;;;16.02;80.94;100281.47;4449611;32;35086;-79
2022/06/14 06:20:06;;;;;;;8.13;2.90;;;;;;;15.99;82.79;100273.03;4452957;32;34581;-79
2022/06/14 06:23:03;;;;;;;7.30;3.10;;;;;;;16.41;81.78;100280.28;4462235;32;33771;-82
2022/06/14 06:28:54;;;;;;;6.10;3.17;;;;;;;16.51;80.02;100284.66;4464870;32;34942;-80
2022/06/14 06:31:42;;;;;;;8.07;3.22;;;;;;;16.45;80.46;100288.75;4441860;32;34954;-81
2022/06/14 06:34:33;;;;;;;7.60;3.17;;;;;;;16.83;80.45;100290.63;4462107;32;32306;-81
2022/06/14 06:37:24;;;;;;;6.03;3.45;;;;;;;16.70;82.01;100286.12;4464960;32;35639;-80
2022/06/14 06:40:18;;;;;;;8.68;3.08;;;;;;;16.79;80.33;100300.75;4453254;32;34589;-83
2022/06/14 06:43:11;;;;;;;5.00;2.53;;;;;;;16.82;81.33;100283.47;4454189;32;34551;-82
2022/06/14 06:45:58;;;;;;;5.82;2.80;;;;;;;17.53;76.91;100288.88;4452327;32;34068;-80
2022/06/14 06:48:58;;;;;;;7.07;2.72;;;;;;;17.35;78.23;100300.47;4467613;32;34279;-79
2022/06/14 06:51:53;;;;;;;6.07;2.80;;;;;;;16.98;77.87;100298.31;4455943;32;34965;-84
2022/06/14 06:54:52;;;;;;;4.90;2.30;;;;;;;17.54;76.69;100301.56;4455048;32;34487;-81
2022/06/14 06:57:43;;;;;;;6.95;2.80;;;;;;;17.66;73.73;100297.22;4466803;32;33953;-80
2022/06/14 07:00:30;;;;;;;6.22;2.47;;;;;;;17.96;72.78;100304.22;4452417;32;34665;-84
2022/06/14 07:03:41;;;;;;;7.70;3.10;;;;;;;17.95;72.16;100297.06;4462747;32;36171;-84
2022/06/14 07:06:40;;;;;;;5.20;2.40;;;;;;;18.02;72.59;100296.50;4454731;32;35051;-79
2022/06/14 10:32:31;;;;;;;4.50;1.80;;;;;;;22.13;31.38;100250.28;4467844;31;447398;-79
2022/06/14 10:35:33;;;;;;;5.95;1.50;;;;;;;22.09;33.99;100259.81;4468424;32;34068;-80
2022/06/14 10:38:48;;;;;;;3.90;1.50;;;;;;;22.31;34.60;100250.59;4446385;32;34340;-78
2022/06/14 10:42:25;;;;;;;2.75;1.35;;;;;;;21.95;35.07;100250.00;4469486;32;34613;-79
2022/06/14 10:45:19;;;;;;;5.12;1.48;;;;;;;21.73;37.39;100245.25;4442354;32;34479;-79
2022/06/14 10:48:18;;;;;;;5.22;1.58;;;;;;;22.39;36.51;100252.31;4453717;32;35822;-79
2022/06/14 10:51:43;;;;;;;4.87;1.42;;;;;;;21.81;35.08;100266.50;4468577;32;35554;-78
2022/06/14 10:54:43;;;;;;;5.20;1.90;;;;;;;22.06;34.07;100252.16;4467033;32;35154;-77
2022/06/14 10:57:52;;;;;;;4.82;1.75;;;;;;;22.11;35.20;100241.47;4468468;32;34483;-77
2022/06/14 11:00:55;;;;;;;5.07;1.50;;;;;;;22.44;33.60;100235.25;4466029;32;34486;-79
2022/06/14 11:03:55;;;;;;;3.17;1.40;;;;;;;22.02;34.42;100238.16;4451312;32;35303;-78
2022/06/14 11:07:21;;;;;;;4.10;1.48;;;;;;;21.77;35.84;100232.16;4473886;32;35940;-82
2022/06/14 11:10:25;;;;;;;4.50;1.40;;;;;;;21.44;36.36;100239.16;4457197;32;34547;-75
2022/06/14 11:13:18;;;;;;;3.12;1.65;;;;;;;21.28;35.69;100243.97;4461203;32;33890;-79
2022/06/14 11:16:10;;;;;;;;;;;;;;;21.01;35.86;100245.84;4454770;32;34647;-82
2022/06/14 11:19:36;;;;;;;7.50;1.90;;;;;;;21.69;36.62;100241.59;4456470;32;36207;-79
2022/06/14 11:22:39;;;;;;;5.35;1.80;;;;;;;21.32;37.64;100251.25;4470043;32;35326;-78
2022/06/14 11:25:56;;;;;;;6.03;1.70;;;;;;;21.88;35.48;100246.28;4456609;32;34580;-80
2022/06/14 11:28:52;;;;;;;5.03;1.65;;;;;;;21.55;36.69;100256.88;4465202;32;35015;-82
2022/06/14 11:31:44;;;;;;;7.45;2.15;;;;;;;21.98;37.68;100249.25;4456742;32;34604;-82
2022/06/14 11:35:17;;;;;;;5.05;1.58;;;;;;;22.28;36.09;100231.00;4458221;32;34497;-81
2022/06/14 11:38:10;;;;;;;3.87;1.80;;;;;;;21.81;38.20;100241.41;4457849;32;35037;-78
2022/06/14 11:41:05;;;;;;;2.72;1.50;;;;;;;22.54;37.14;100241.34;4457082;32;34742;-80
2022/06/14 11:44:08;;;;;;;4.37;1.60;;;;;;;22.92;34.84;100233.87;4440375;32;34940;-78
2022/06/14 11:47:25;;;;;;;2.95;1.70;;;;;;;22.95;33.31;100233.94;4442644;32;34686;-77
2022/06/14 11:50:22;;;;;;;6.72;1.85;;;;;;;22.09;36.17;100246.66;4458451;32;33723;-80
2022/06/14 11:53:16;;;;;;;4.82;1.65;;;;;;;22.04;37.89;100246.16;4440741;32;34622;-80
2022/06/14 11:56:22;;;;;;;4.12;1.80;;;;;;;22.13;36.27;100260.66;4450379;32;36004;-79
2022/06/14 11:59:35;;;;;;;5.95;2.10;;;;;;;21.45;35.18;100265.84;4446858;32;34394;-79
2022/06/14 12:02:31;;;;;;;3.75;1.60;;;;;;;22.16;36.88;100254.31;4463201;32;34659;-81
2022/06/14 12:05:58;;;;;;;4.90;1.67;;;;;;;22.81;37.78;100251.31;4464594;32;34892;-80
2022/06/14 12:09:36;;;;;;;5.05;1.90;;;;;;;22.87;36.67;100241.41;4449977;32;35066;-79
2022/06/14 12:12:54;;;;;;;4.65;1.60;;;;;;;22.13;37.05;100243.91;4455976;32;35333;-80
2022/06/14 12:15:50;;;;;;;3.85;1.55;;;;;;;22.59;34.38;100244.63;4432775;32;35012;-83
2022/06/14 12:18:44;;;;;;;7.05;1.65;;;;;;;22.06;36.20;100232.63;4440184;32;35021;-81
2022/06/14 12:22:36;;;;;;;5.15;1.80;;;;;;;22.76;35.26;100231.28;4441551;32;34785;-78
2022/06/14 12:29:04;;;;;;;4.55;2.00;;;;;;;23.20;35.12;100216.69;4381916;32;32877;-82
2022/06/14 12:32:13;;;;;;;3.25;1.42;;;;;;;22.36;36.51;100224.34;4449677;32;35652;-80
2022/06/14 12:35:20;;;;;;;3.90;1.80;;;;;;;22.34;36.43;100221.94;4451560;32;34988;-82
2022/06/14 12:38:18;;;;;;;6.57;1.90;;;;;;;23.19;36.46;100226.22;4455056;32;33411;-82
2022/06/14 12:41:21;;;;;;;4.25;1.60;;;;;;;23.17;33.95;100223.00;4450990;32;33749;-80
2022/06/14 12:44:17;;;;;;;10.65;2.10;;;;;;;22.83;35.22;100225.78;4450544;32;35235;-81
2022/06/14 12:47:11;;;;;;;3.83;1.87;;;;;;;23.29;35.41;100220.75;4442070;32;34514;-82
2022/06/14 12:50:14;;;;;;;4.45;1.48;;;;;;;22.75;34.00;100219.31;4444929;32;34006;-80
2022/06/14 12:53:10;;;;;;;4.03;1.52;;;;;;;22.82;34.85;100221.38;4442011;32;34095;-83
2022/06/14 12:56:26;;;;;;;3.83;1.60;;;;;;;22.98;33.84;100215.62;4445077;32;34860;-82
2022/06/14 12:59:30;;;;;;;5.20;2.00;;;;;;;23.37;34.45;100226.41;4445136;32;34602;-80
2022/06/14 13:02:26;;;;;;;5.37;1.45;;;;;;;23.08;34.00;100220.50;4434581;32;34441;-81
2022/06/14 13:05:21;;;;;;;4.00;1.48;;;;;;;22.96;35.75;100209.59;4449230;32;34101;-81
2022/06/14 13:11:49;;;;;;;4.50;2.62;;;;;;;23.22;34.41;100206.69;4458907;32;35084;-80
2022/06/14 13:14:47;;;;;;;6.75;2.00;;;;;;;22.75;36.15;100198.94;4457910;32;34009;-80
2022/06/14 13:17:58;;;;;;;6.78;1.33;;;;;;;22.59;35.50;100204.72;4453855;32;34110;-79
2022/06/14 13:20:58;;;;;;;6.40;1.98;;;;;;;22.75;34.58;100194.16;4459337;32;34812;-81
2022/06/14 13:24:15;;;;;;;6.25;1.70;;;;;;;22.04;37.38;100193.16;4458754;32;33806;-81
2022/06/14 13:27:24;;;;;;;3.75;1.60;;;;;;;22.19;36.48;100189.41;4449076;32;35901;-81
2022/06/14 13:30:50;;;;;;;7.05;1.80;;;;;;;22.67;36.50;100184.09;4457988;32;34138;-83
2022/06/14 13:33:59;;;;;;;4.40;1.90;;;;;;;22.59;35.84;100185.16;4432633;32;34253;-79
2022/06/14 13:37:09;;;;;;;2.85;1.60;;;;;;;21.68;35.30;100192.56;4433073;32;35040;-79
2022/06/14 13:40:21;;;;;;;4.22;1.30;;;;;;;22.34;34.75;100171.69;4433173;32;34534;-79
2022/06/14 13:43:34;;;;;;;5.22;1.70;;;;;;;23.07;33.27;100174.19;4432643;32;34035;-79
2022/06/14 13:46:35;;;;;;;3.75;1.58;;;;;;;23.29;33.56;100181.62;4432682;32;35368;-81
2022/06/14 13:49:27;;;;;;;9.20;1.90;;;;;;;23.60;33.24;100182.31;4422014;32;35083;-82
2022/06/14 13:52:23;;;;;;;4.65;1.70;;;;;;;22.96;32.85;100190.03;4431866;32;34528;-79
2022/06/14 13:55:12;;;;;;;4.30;1.50;;;;;;;22.32;34.30;100179.63;4420885;32;34925;-79
2022/06/14 13:58:18;;;;;;;5.18;1.70;;;;;;;22.06;33.75;100162.84;4432835;32;35528;-78
2022/06/14 14:01:19;;;;;;;5.30;1.37;;;;;;;22.69;34.73;100173.34;4432261;32;35007;-80
2022/06/14 14:04:27;;;;;;;4.67;1.60;;;;;;;22.71;34.73;100164.56;4432538;32;34138;-82
2022/06/14 14:07:34;;;;;;;6.55;2.12;;;;;;;22.98;34.03;100165.31;4430421;32;34370;-82
2022/06/14 14:10:44;;;;;;;6.12;1.70;;;;;;;23.42;34.30;100159.75;4431788;32;35502;-79
2022/06/14 14:13:47;;;;;;;5.75;1.52;;;;;;;23.65;32.52;100156.78;4430576;32;35107;-78
2022/06/14 14:17:07;;;;;;;4.47;1.60;;;;;;;23.21;33.05;100163.16;4430658;32;34166;-80
2022/06/14 14:20:19;;;;;;;3.83;1.30;;;;;;;22.43;33.37;100169.44;4428592;32;33552;-79
2022/06/14 14:23:33;;;;;;;4.30;1.60;;;;;;;23.02;33.79;100154.97;4426976;32;34623;-80
2022/06/14 14:26:28;;;;;;;3.62;1.60;;;;;;;23.65;32.29;100159.59;4433205;32;34623;-79
2022/06/14 14:29:30;;;;;;;5.07;1.60;;;;;;;22.28;33.33;100150.84;4431054;32;33513;-79
2022/06/14 14:32:33;;;;;;;2.45;1.40;;;;;;;22.86;33.36;100169.97;4432861;32;34960;-81
2022/06/14 14:35:35;;;;;;;4.05;1.92;;;;;;;23.15;32.33;100158.31;4440423;32;35685;-80
2022/06/14 14:38:30;;;;;;;3.78;1.60;;;;;;;23.34;33.02;100153.31;4452666;32;34519;-77
2022/06/14 14:41:43;;;;;;;4.18;1.60;;;;;;;23.27;31.91;100149.66;4441510;32;34510;-79
2022/06/14 14:44:30;;;;;;;5.07;1.60;;;;;;;23.98;31.27;100143.84;4433562;32;33194;-77
2022/06/14 14:47:26;;;;;;;5.18;1.42;;;;;;;22.92;33.12;100144.47;4455214;32;35848;-82
2022/06/14 14:50:36;;;;;;;3.42;1.30;;;;;;;23.31;32.15;100142.91;4441847;32;35535;-80
2022/06/14 14:53:45;;;;;;;4.03;1.42;;;;;;;23.88;31.27;100139.81;4451014;32;34139;-78
2022/06/14 14:56:36;;;;;;;4.35;1.80;;;;;;;22.74;32.68;100149.84;4436618;32;34058;-80
2022/06/14 14:59:42;;;;;;;6.60;1.60;;;;;;;23.14;32.82;100143.53;4449092;32;35294;-80
2022/06/14 15:05:56;;;;;;;5.62;1.50;;;;;;;24.04;31.57;100139.50;4448023;32;34263;-80
2022/06/14 15:08:56;;;;;;;5.65;1.50;;;;;;;23.49;33.03;100139.47;4454946;32;33877;-79
2022/06/14 15:11:57;;;;;;;11.63;1.98;;;;;;;23.54;32.48;100125.13;4440847;32;35647;-79
2022/06/14 15:15:17;;;;;;;3.50;1.50;;;;;;;24.13;33.36;100123.16;4460248;32;35016;-79
2022/06/14 15:21:35;;;;;;;3.47;1.50;;;;;;;23.00;33.04;100135.81;4446072;32;35011;-79
2022/06/14 15:24:25;;;;;;;3.22;1.40;;;;;;;23.22;33.78;100136.00;4441962;32;34755;-81
2022/06/14 15:27:38;;;;;;;4.93;1.50;;;;;;;23.08;33.09;100131.09;4455490;32;37813;-80
2022/06/14 15:30:52;;;;;;;3.25;1.33;;;;;;;22.72;33.78;100130.69;4446465;32;34104;-81
2022/06/14 15:33:42;;;;;;;3.50;1.25;;;;;;;22.77;33.66;100133.13;4449049;32;34130;-79
2022/06/14 15:36:40;;;;;;;2.80;1.30;;;;;;;22.94;33.43;100139.28;4452515;32;34922;-78
2022/06/14 15:39:34;;;;;;;2.80;1.05;;;;;;;22.81;33.33;100128.37;4456949;32;35988;-79
2022/06/14 15:42:48;;;;;;;4.15;1.45;;;;;;;22.88;34.19;100128.47;4450857;32;34503;-80
2022/06/14 15:49:03;;;;;;;5.55;1.40;;;;;;;23.06;33.43;100122.31;4448502;32;35471;-80
2022/06/14 15:51:56;;;;;;;2.75;1.12;;;;;;;23.54;34.16;100120.34;4440375;32;34949;-80
2022/06/14 15:55:12;;;;;;;5.18;1.23;;;;;;;23.43;33.28;100129.84;4453259;32;34498;-79
2022/06/14 15:58:06;;;;;;;5.55;1.30;;;;;;;22.89;33.30;100124.47;4448249;32;35598;-80
2022/06/14 16:01:01;;;;;;;2.53;1.17;;;;;;;22.51;33.58;100131.22;4443652;32;35480;-80
2022/06/14 16:06:57;;;;;;;3.33;1.00;;;;;;;22.90;33.94;100119.69;4452547;32;35456;-78
2022/06/14 16:13:22;;;;;;;5.20;1.15;;;;;;;22.98;33.77;100120.62;4457903;32;34248;-81
2022/06/14 16:16:34;;;;;;;4.37;1.00;;;;;;;23.30;33.96;100110.53;4458366;32;34906;-79
2022/06/14 16:19:36;;;;;;;3.55;1.10;;;;;;;22.75;34.37;100132.72;4448680;32;33478;-78
2022/06/14 16:22:29;;;;;;;3.67;1.20;;;;;;;22.69;34.77;100123.06;4449598;32;34909;-81
2022/06/14 16:28:52;;;;;;;4.68;1.27;;;;;;;23.01;33.36;100119.84;4445574;32;35520;-80
2022/06/14 16:31:59;;;;;;;3.17;1.20;;;;;;;22.42;33.94;100111.97;4454526;32;34709;-80
2022/06/14 16:35:17;;;;;;;1.98;0.98;;;;;;;22.53;35.03;100131.63;4455269;32;34935;-80
2022/06/14 16:38:25;;;;;;;3.42;1.10;;;;;;;22.78;33.29;100117.19;4446957;32;33861;-79
2022/06/14 16:41:22;;;;;;;2.62;0.95;;;;;;;22.95;32.85;100121.34;4457925;32;35037;-78
2022/06/14 16:44:26;;;;;;;3.72;1.42;;;;;;;22.94;32.84;100114.13;4461904;32;34531;-78
2022/06/14 16:47:21;;;;;;;3.33;1.10;;;;;;;22.86;33.71;100127.25;4459599;32;34046;-79
2022/06/14 16:50:53;;;;;;;2.28;1.10;;;;;;;23.37;32.91;100115.41;4456680;32;35532;-81
2022/06/14 16:54:02;;;;;;;3.00;1.73;;;;;;;23.29;33.15;100120.12;4421988;32;35097;-79
2022/06/14 16:57:03;;;;;;;2.22;1.00;;;;;;;23.32;32.61;100113.75;4446745;32;34492;-79
2022/06/14 17:00:02;;;;;;;3.30;1.35;;;;;;;23.86;31.73;100116.19;4440904;32;34667;-81
2022/06/14 17:03:13;;;;;;;2.37;1.10;;;;;;;23.81;32.12;100113.75;4458869;32;34566;-79
2022/06/14 17:06:36;;;;;;;2.65;1.02;;;;;;;23.40;32.51;100102.66;4458638;32;34460;-80
2022/06/14 17:09:31;;;;;;;3.20;0.98;;;;;;;24.01;31.35;100104.69;4451115;32;34097;-80
2022/06/14 17:12:50;;;;;;;3.42;0.95;;;;;;;23.32;32.12;100105.37;4453561;32;33815;-81
2022/06/14 17:16:04;;;;;;;2.12;0.90;;;;;;;23.90;31.80;100103.03;4452722;32;35647;-81
2022/06/14 17:19:00;;;;;;;2.53;1.02;;;;;;;23.52;32.50;100110.72;4442452;32;34998;-79
2022/06/14 17:31:38;;;;;;;2.45;1.00;;;;;;;23.69;31.82;100118.44;4452648;32;34644;-81
2022/06/14 17:34:45;;;;;;;3.58;0.77;;;;;;;23.70;30.94;100108.06;4440229;32;33635;-80
2022/06/14 17:37:37;;;;;;;2.70;0.90;;;;;;;23.75;31.85;100114.13;4448632;32;34090;-81
2022/06/14 17:40:29;;;;;;;3.55;1.20;;;;;;;24.09;31.34;100104.75;4451246;32;35650;-80
2022/06/14 17:43:33;;;;;;;2.37;1.10;;;;;;;24.17;30.90;100104.38;4443687;32;34716;-80
2022/06/14 17:46:29;;;;;;;2.58;0.90;;;;;;;22.75;33.06;100110.38;4444610;32;35448;-82
2022/06/14 17:49:39;;;;;;;4.53;0.77;;;;;;;23.21;33.06;100112.84;4456819;32;34113;-81
2022/06/14 17:56:23;;;;;;;4.27;0.87;;;;;;;22.69;33.50;100120.28;4452928;32;34788;-80
2022/06/14 17:59:32;;;;;;;2.83;0.90;;;;;;;22.89;34.07;100118.91;4459535;32;35361;-81
2022/06/14 18:02:45;;;;;;;3.28;0.88;;;;;;;23.28;33.32;100117.69;4447243;32;34060;-80
2022/06/14 18:06:09;;;;;;;3.03;1.27;;;;;;;22.62;34.07;100120.19;4456557;32;35222;-79
2022/06/14 18:09:06;;;;;;;1.45;0.93;;;;;;;22.27;34.83;100115.75;4458870;32;33734;-79
2022/06/14 18:12:00;;;;;;;2.67;0.82;;;;;;;22.30;35.08;100119.78;4453938;32;35438;-80
2022/06/14 18:14:58;;;;;;;3.08;1.10;;;;;;;22.51;34.43;100111.66;4454384;32;33870;-80